Time;durP1;ratioP1;P1;durP2;ratioP2;P2;SDS_P1;SDS_P2;PMS_P1;PMS_P2;Temp;Humidity;BMP_temperature;BMP_pressure;BME280_temperature;BME280_humidity;BME280_pressure;Samples;Min_cycle;Max_cycle;Signal;HPM_P1;HPM_P2
2024/02/13 00:00:59;;;;;;;21.93;10.67;;;;;;;4.13;100.00;100483.44;6043773;23;20198;-74
2024/02/13 00:03:25;;;;;;;21.40;10.83;;;;;;;4.09;100.00;100483.25;6043450;23;20178;-74
2024/02/13 00:05:53;;;;;;;23.87;10.77;;;;;;;4.05;100.00;100490.09;6043828;23;20737;-73
2024/02/13 00:08:19;;;;;;;27.13;10.87;;;;;;;4.02;100.00;100497.72;6042799;23;20195;-74
2024/02/13 00:10:46;;;;;;;23.73;10.73;;;;;;;3.98;100.00;100497.53;6008917;23;20200;-74
2024/02/13 00:13:12;;;;;;;27.63;11.57;;;;;;;3.94;100.00;100501.00;6043729;23;20168;-74
2024/02/13 00:15:38;;;;;;;22.07;10.87;;;;;;;3.91;100.00;100499.72;6043694;23;20335;-74
2024/02/13 00:18:07;;;;;;;23.87;11.27;;;;;;;3.90;100.00;100502.63;6044546;23;20188;-73
2024/02/13 00:20:33;;;;;;;25.27;11.27;;;;;;;3.88;100.00;100513.34;6033572;23;20182;-74
2024/02/13 00:23:01;;;;;;;23.63;12.57;;;;;;;3.87;100.00;100516.22;6043836;23;20174;-74
2024/02/13 00:25:28;;;;;;;26.03;11.53;;;;;;;3.85;100.00;100516.53;6043450;23;20689;-74
2024/02/13 00:27:54;;;;;;;28.53;12.60;;;;;;;3.85;100.00;100519.13;6008736;23;20192;-74
2024/02/13 00:30:21;;;;;;;31.03;12.30;;;;;;;3.83;100.00;100518.63;6043777;23;20184;-73
2024/02/13 00:32:47;;;;;;;25.70;12.40;;;;;;;3.80;100.00;100521.81;6043999;23;20615;-73
2024/02/13 00:35:14;;;;;;;27.60;11.47;;;;;;;3.78;100.00;100523.91;6043211;23;20172;-73
2024/02/13 00:37:40;;;;;;;25.80;11.40;;;;;;;3.76;100.00;100517.41;6043158;23;20191;-73
2024/02/13 00:40:09;;;;;;;26.93;12.17;;;;;;;3.73;100.00;100528.44;6043562;23;20648;-74
2024/02/13 00:42:36;;;;;;;19.60;10.63;;;;;;;3.68;100.00;100526.66;6043376;23;20167;-76
2024/02/13 00:45:05;;;;;;;28.97;11.10;;;;;;;3.63;100.00;100534.56;6043273;23;20167;-73
2024/02/13 00:47:31;;;;;;;24.97;11.27;;;;;;;3.58;100.00;100536.47;6042661;23;20195;-75
2024/02/13 00:49:58;;;;;;;28.30;10.70;;;;;;;3.53;100.00;100539.91;6043180;23;20180;-74
2024/02/13 00:52:25;;;;;;;24.20;10.80;;;;;;;3.49;100.00;100540.75;6044478;23;20613;-74
2024/02/13 00:54:51;;;;;;;27.47;11.80;;;;;;;3.44;100.00;100548.63;6044230;23;20679;-74
2024/02/13 00:57:19;;;;;;;26.07;11.03;;;;;;;3.38;100.00;100547.16;6044249;23;20190;-76
2024/02/13 00:59:45;;;;;;;21.63;10.23;;;;;;;3.33;100.00;100547.97;6044866;23;20493;-74
2024/02/13 01:02:11;;;;;;;21.87;10.33;;;;;;;3.28;100.00;100553.25;6009703;23;20171;-74
2024/02/13 01:04:38;;;;;;;23.57;11.03;;;;;;;3.23;100.00;100560.34;6009681;23;20175;-74
2024/02/13 01:07:05;;;;;;;27.50;10.77;;;;;;;3.17;100.00;100551.78;6043630;23;20187;-74
2024/02/13 01:09:31;;;;;;;26.57;11.53;;;;;;;3.14;100.00;100562.00;6044243;23;20625;-74
2024/02/13 01:11:57;;;;;;;21.80;10.57;;;;;;;3.09;100.00;100555.03;6044152;23;20187;-75
2024/02/13 01:14:25;;;;;;;23.77;10.67;;;;;;;3.06;100.00;100557.41;6044248;23;20167;-75
2024/02/13 01:16:52;;;;;;;24.30;11.17;;;;;;;3.00;100.00;100561.13;6044525;23;20234;-74
2024/02/13 01:19:20;;;;;;;21.77;10.17;;;;;;;2.96;100.00;100562.72;6044591;23;20266;-75
2024/02/13 01:21:47;;;;;;;26.13;10.83;;;;;;;2.92;100.00;100559.09;6044543;23;20218;-74
2024/02/13 01:24:14;;;;;;;24.93;10.87;;;;;;;2.88;100.00;100564.09;6044754;23;20690;-75
2024/02/13 01:26:42;;;;;;;24.43;10.67;;;;;;;2.86;100.00;100583.66;6044424;23;20801;-75
2024/02/13 01:29:09;;;;;;;26.43;11.27;;;;;;;2.83;100.00;100579.78;6044140;23;20550;-74
2024/02/13 01:31:37;;;;;;;22.17;11.00;;;;;;;2.83;100.00;100581.59;6009574;23;20199;-74
2024/02/13 01:34:04;;;;;;;30.17;11.53;;;;;;;2.80;100.00;100580.31;6009035;23;20644;-75
2024/02/13 01:36:30;;;;;;;25.47;10.97;;;;;;;2.79;100.00;100583.19;6044443;23;20194;-74
2024/02/13 01:38:59;;;;;;;26.10;12.27;;;;;;;2.76;100.00;100588.97;6043552;23;20194;-74
2024/02/13 01:41:26;;;;;;;27.23;11.63;;;;;;;2.73;100.00;100584.28;6044315;23;20167;-74
2024/02/13 01:43:53;;;;;;;22.67;10.53;;;;;;;2.70;100.00;100598.66;6044372;23;20487;-75
2024/02/13 01:46:20;;;;;;;35.60;12.03;;;;;;;2.69;100.00;100596.34;6044465;23;20175;-75
2024/02/13 01:48:48;;;;;;;25.40;11.13;;;;;;;2.68;100.00;100599.97;6044053;23;20187;-74
2024/02/13 01:51:16;;;;;;;26.23;11.93;;;;;;;2.66;100.00;100607.28;6044681;23;20191;-73
2024/02/13 01:53:45;;;;;;;34.23;12.60;;;;;;;2.66;100.00;100609.91;6009346;23;20231;-75
2024/02/13 01:56:12;;;;;;;28.97;11.30;;;;;;;2.66;100.00;100615.13;6044585;23;20494;-73
2024/02/13 01:58:39;;;;;;;31.77;11.67;;;;;;;2.69;100.00;100622.41;6046022;23;20231;-74
2024/02/13 02:01:06;;;;;;;35.60;12.07;;;;;;;2.69;100.00;100615.34;6046220;23;20235;-74
2024/02/13 02:03:34;;;;;;;34.20;11.87;;;;;;;2.71;100.00;100620.28;6045855;23;20168;-75
2024/02/13 02:06:03;;;;;;;28.30;11.93;;;;;;;2.73;100.00;100624.19;6046362;23;20619;-74
2024/02/13 02:08:30;;;;;;;33.23;13.73;;;;;;;2.75;100.00;100629.91;6045122;23;20215;-74
2024/02/13 02:10:57;;;;;;;32.00;13.10;;;;;;;2.79;100.00;100625.69;6046078;23;20184;-74
2024/02/13 02:13:26;;;;;;;35.87;13.07;;;;;;;2.82;100.00;100630.38;6045950;23;20232;-74
2024/02/13 02:15:53;;;;;;;32.30;12.70;;;;;;;2.83;100.00;100631.94;6045598;23;20168;-75
2024/02/13 02:18:19;;;;;;;33.37;12.30;;;;;;;2.86;100.00;100631.38;6045635;23;20202;-75
2024/02/13 02:20:46;;;;;;;30.97;12.07;;;;;;;2.85;100.00;100636.88;6045896;23;20170;-75
2024/02/13 02:23:14;;;;;;;36.10;13.40;;;;;;;2.86;100.00;100641.03;6044882;23;20211;-74
2024/02/13 02:25:41;;;;;;;31.90;12.37;;;;;;;2.87;100.00;100645.19;6044807;23;20470;-74
2024/02/13 02:28:08;;;;;;;35.77;13.07;;;;;;;2.86;100.00;100643.66;6044771;23;20194;-75
2024/02/13 02:30:34;;;;;;;38.40;13.63;;;;;;;2.86;100.00;100647.00;6045208;23;20215;-74
2024/02/13 02:33:03;;;;;;;38.73;13.80;;;;;;;2.86;100.00;100649.63;6045251;23;20178;-75
2024/02/13 02:35:29;;;;;;;38.30;13.00;;;;;;;2.88;100.00;100660.56;6011062;23;20218;-73
2024/02/13 02:37:55;;;;;;;38.37;13.10;;;;;;;2.90;100.00;100655.84;6045069;23;20187;-75
2024/02/13 02:40:22;;;;;;;43.93;14.37;;;;;;;2.92;100.00;100666.81;6010426;23;20164;-75
2024/02/13 02:42:52;;;;;;;40.27;13.37;;;;;;;2.96;100.00;100667.03;6045688;23;20174;-74
2024/02/13 02:45:18;;;;;;;47.13;13.57;;;;;;;2.99;100.00;100662.06;6045345;23;20193;-73
2024/02/13 02:47:46;;;;;;;36.47;12.07;;;;;;;3.01;100.00;100672.22;6042486;23;20526;-74
2024/02/13 02:50:13;;;;;;;40.07;13.87;;;;;;;3.04;100.00;100669.84;6045421;23;20178;-74
2024/02/13 02:52:39;;;;;;;43.80;13.90;;;;;;;3.09;100.00;100674.22;6045342;23;20182;-75
2024/02/13 02:55:06;;;;;;;40.10;15.30;;;;;;;3.13;100.00;100678.63;6045287;23;20502;-75
2024/02/13 02:57:34;;;;;;;45.17;14.10;;;;;;;3.15;100.00;100686.97;6045263;23;20221;-74
2024/02/13 03:00:03;;;;;;;42.53;14.67;;;;;;;3.25;100.00;100686.88;6010570;23;20251;-74
2024/02/13 03:02:29;;;;;;;54.90;14.50;;;;;;;3.30;100.00;100692.06;6010476;23;20179;-74
2024/02/13 03:04:56;;;;;;;44.43;14.60;;;;;;;3.37;100.00;100686.53;6045383;23;20195;-75
2024/02/13 03:07:24;;;;;;;42.70;14.70;;;;;;;3.47;100.00;100695.03;6043883;23;20191;-75
2024/02/13 03:09:50;;;;;;;40.17;15.30;;;;;;;3.54;100.00;100698.09;6010455;23;20179;-74
2024/02/13 03:12:17;;;;;;;47.13;15.57;;;;;;;3.63;100.00;100696.44;6044708;23;20185;-73
2024/02/13 03:14:43;;;;;;;45.77;15.67;;;;;;;3.69;100.00;100705.00;6010246;23;20811;-73
2024/02/13 03:17:11;;;;;;;45.10;15.20;;;;;;;3.72;100.00;100701.81;6044924;23;20650;-74
2024/02/13 03:19:38;;;;;;;48.83;15.03;;;;;;;3.78;100.00;100704.13;6044718;23;20239;-74
2024/02/13 03:22:04;;;;;;;38.53;14.30;;;;;;;3.85;100.00;100712.41;6044585;23;20166;-75
2024/02/13 03:24:30;;;;;;;48.57;15.60;;;;;;;3.91;100.00;100710.50;6044452;23;20163;-74
2024/02/13 03:26:57;;;;;;;51.27;16.00;;;;;;;3.96;100.00;100713.06;6043989;23;20222;-75
2024/02/13 03:29:23;;;;;;;43.37;14.90;;;;;;;4.00;100.00;100729.75;6044382;23;20212;-74
2024/02/13 03:31:50;;;;;;;44.70;14.73;;;;;;;4.03;100.00;100737.03;6044025;23;20198;-74
2024/02/13 03:34:17;;;;;;;43.20;14.13;;;;;;;4.07;100.00;100738.81;6044117;23;20545;-75
2024/02/13 03:36:44;;;;;;;44.77;14.57;;;;;;;4.11;100.00;100750.28;6043805;23;20178;-74
2024/02/13 03:39:10;;;;;;;42.33;13.90;;;;;;;4.15;100.00;100747.88;6044320;23;20177;-74
2024/02/13 03:41:41;;;;;;;48.10;14.53;;;;;;;4.17;100.00;100754.38;6043880;23;20170;-75
2024/02/13 03:44:26;;;;;;;38.93;13.83;;;;;;;4.22;100.00;100759.56;6044282;23;20535;-74
2024/02/13 03:46:54;;;;;;;44.87;13.40;;;;;;;4.25;100.00;100761.59;6004261;23;20705;-75
2024/02/13 03:49:22;;;;;;;39.67;14.20;;;;;;;4.27;100.00;100775.19;6015859;23;20176;-75
2024/02/13 03:51:48;;;;;;;39.00;13.60;;;;;;;4.28;100.00;100766.28;6015726;23;20286;-74
2024/02/13 03:54:15;;;;;;;43.00;13.83;;;;;;;4.30;100.00;100776.47;6015442;23;20179;-74
2024/02/13 03:56:41;;;;;;;39.47;13.00;;;;;;;4.29;100.00;100769.66;6015474;23;20168;-75
2024/02/13 03:59:09;;;;;;;33.47;13.23;;;;;;;4.31;100.00;100778.00;6015188;23;20182;-74
2024/02/13 04:01:35;;;;;;;39.37;12.83;;;;;;;4.30;100.00;100786.91;6004477;23;20220;-74
2024/02/13 04:04:02;;;;;;;33.80;13.80;;;;;;;4.27;100.00;100775.19;6015502;23;20165;-75
2024/02/13 04:06:29;;;;;;;35.77;12.83;;;;;;;4.25;100.00;100782.50;6014591;23;20162;-75
2024/02/13 04:08:56;;;;;;;35.53;13.10;;;;;;;4.24;100.00;100791.41;6015511;23;20211;-73
2024/02/13 04:11:23;;;;;;;44.33;14.50;;;;;;;4.19;100.00;100788.09;6015830;23;20188;-74
2024/02/13 04:13:49;;;;;;;30.93;12.50;;;;;;;4.17;100.00;100798.81;6015229;23;20954;-74
2024/02/13 04:16:15;;;;;;;35.93;12.47;;;;;;;4.16;100.00;100794.66;6015259;23;20253;-75
2024/02/13 04:18:42;;;;;;;37.37;12.83;;;;;;;4.13;100.00;100795.19;6015152;23;20532;-74
2024/02/13 04:21:15;;;;;;;33.27;12.37;;;;;;;4.11;100.00;100794.69;6003233;23;20229;-73
2024/02/13 04:23:44;;;;;;;27.73;11.87;;;;;;;4.11;100.00;100807.75;6014927;23;20622;-75
2024/02/13 04:26:10;;;;;;;32.70;12.23;;;;;;;4.10;100.00;100810.66;6015011;23;20198;-73
2024/02/13 04:28:37;;;;;;;32.13;11.83;;;;;;;4.09;100.00;100809.84;6014937;23;20226;-74
2024/02/13 04:31:04;;;;;;;27.57;11.70;;;;;;;4.09;100.00;100822.16;6015330;23;20295;-74
2024/02/13 04:33:30;;;;;;;33.53;12.13;;;;;;;4.08;100.00;100818.75;6014684;23;20250;-74
2024/02/13 04:35:58;;;;;;;31.13;12.37;;;;;;;4.07;100.00;100835.50;6015953;23;20644;-73
2024/02/13 04:38:25;;;;;;;32.43;11.77;;;;;;;4.05;100.00;100831.59;6015641;23;20574;-73
2024/02/13 04:40:52;;;;;;;33.37;12.27;;;;;;;4.03;100.00;100831.06;6004348;23;20186;-75
2024/02/13 04:43:19;;;;;;;26.90;11.40;;;;;;;4.02;100.00;100835.53;6015591;23;20780;-73
2024/02/13 04:45:45;;;;;;;31.27;12.17;;;;;;;4.00;100.00;100842.84;6004172;23;20626;-74
2024/02/13 04:48:13;;;;;;;29.93;12.47;;;;;;;3.98;100.00;100834.53;6041332;23;20191;-75
2024/02/13 04:50:39;;;;;;;33.53;11.87;;;;;;;3.97;100.00;100834.78;6044015;23;20171;-74
2024/02/13 04:53:05;;;;;;;27.33;11.07;;;;;;;3.92;100.00;100843.47;6044135;23;20282;-74
2024/02/13 04:55:34;;;;;;;24.37;11.07;;;;;;;3.89;100.00;100841.38;6043279;23;20163;-74
2024/02/13 04:58:02;;;;;;;26.17;11.63;;;;;;;3.85;100.00;100848.25;6043047;23;20198;-75
2024/02/13 05:00:36;;;;;;;28.47;11.43;;;;;;;3.79;100.00;100851.91;6043823;23;20223;-75
2024/02/13 05:03:06;;;;;;;26.07;12.07;;;;;;;3.76;100.00;100860.31;6043599;23;20172;-74
2024/02/13 05:08:12;;;;;;;22.83;10.73;;;;;;;3.64;100.00;100862.47;6009870;23;20197;-75
2024/02/13 05:10:39;;;;;;;25.53;10.97;;;;;;;3.61;100.00;100863.03;6043593;23;20167;-74
2024/02/13 05:13:07;;;;;;;29.10;12.10;;;;;;;3.61;100.00;100870.88;6043816;23;20518;-73
2024/02/13 05:15:33;;;;;;;27.63;11.50;;;;;;;3.63;100.00;100881.81;6008649;23;20176;-74
2024/02/13 05:17:59;;;;;;;27.20;11.00;;;;;;;3.65;100.00;100884.94;6043719;23;20198;-74
2024/02/13 05:20:26;;;;;;;25.90;11.50;;;;;;;3.69;100.00;100885.94;6043540;23;20219;-74
2024/02/13 05:22:53;;;;;;;30.17;11.83;;;;;;;3.74;100.00;100896.34;6043418;23;20174;-75
2024/02/13 05:25:21;;;;;;;27.57;11.37;;;;;;;3.78;100.00;100886.94;6042957;23;20541;-74
2024/02/13 05:27:50;;;;;;;31.47;12.73;;;;;;;3.86;100.00;100896.00;6008095;23;20193;-74
2024/02/13 05:30:18;;;;;;;30.70;13.10;;;;;;;3.89;100.00;100898.84;6008810;23;20231;-74
2024/02/13 05:32:44;;;;;;;28.50;11.77;;;;;;;3.94;100.00;100896.19;6044741;23;20184;-74
2024/02/13 05:35:11;;;;;;;30.00;12.30;;;;;;;3.98;100.00;100907.69;6045511;23;20198;-75
2024/02/13 05:37:37;;;;;;;31.43;12.00;;;;;;;4.04;100.00;100916.25;6044898;23;20629;-74
2024/02/13 05:40:10;;;;;;;23.80;10.83;;;;;;;4.10;100.00;100917.78;6045285;23;20222;-72
2024/02/13 05:42:36;;;;;;;29.37;11.23;;;;;;;4.14;100.00;100914.34;6044873;23;20166;-74
2024/02/13 05:45:06;;;;;;;26.67;11.10;;;;;;;4.18;100.00;100922.41;6009084;23;20198;-74
2024/02/13 05:47:35;;;;;;;27.23;10.70;;;;;;;4.23;100.00;100931.00;6044255;23;20195;-75
2024/02/13 05:50:03;;;;;;;25.13;11.10;;;;;;;4.25;100.00;100931.47;6044947;23;20181;-74
2024/02/13 05:52:30;;;;;;;22.10;10.47;;;;;;;4.26;100.00;100929.66;6044616;23;20187;-73
2024/02/13 05:54:58;;;;;;;25.23;11.40;;;;;;;4.25;100.00;100933.34;6009701;23;20664;-73
2024/02/13 05:57:27;;;;;;;25.87;9.77;;;;;;;4.22;100.00;100936.47;6043307;23;20192;-74
2024/02/13 05:59:55;;;;;;;27.17;10.50;;;;;;;4.18;100.00;100940.69;6044119;23;20172;-74
2024/02/13 06:02:22;;;;;;;22.90;9.50;;;;;;;4.14;100.00;100947.53;6044461;23;20552;-75
2024/02/13 06:04:50;;;;;;;23.00;10.57;;;;;;;4.09;100.00;100950.94;6009306;23;20180;-74
2024/02/13 06:07:16;;;;;;;28.70;10.60;;;;;;;4.09;100.00;100952.81;6008414;23;20191;-74
2024/02/13 06:09:42;;;;;;;25.20;10.70;;;;;;;4.07;100.00;100955.69;6043953;23;20243;-75
2024/02/13 06:12:10;;;;;;;20.33;9.17;;;;;;;4.09;100.00;100965.88;6009124;23;20192;-74
2024/02/13 06:14:37;;;;;;;20.83;9.50;;;;;;;4.09;100.00;100966.63;6009263;23;20522;-75
2024/02/13 06:17:04;;;;;;;27.07;10.23;;;;;;;4.08;100.00;100967.69;6044683;23;20214;-74
2024/02/13 06:19:30;;;;;;;22.17;9.13;;;;;;;4.05;100.00;100976.06;6045219;23;20173;-74
2024/02/13 06:21:58;;;;;;;26.77;10.27;;;;;;;4.01;100.00;100979.50;6045196;23;20641;-74
2024/02/13 06:24:24;;;;;;;24.97;10.60;;;;;;;3.96;100.00;100985.56;6044071;23;20174;-73
2024/02/13 06:26:51;;;;;;;21.87;9.93;;;;;;;3.92;100.00;100984.53;6043952;23;20689;-73
2024/02/13 06:29:17;;;;;;;26.00;10.07;;;;;;;3.89;100.00;100998.13;6044250;23;20178;-74
2024/02/13 06:31:44;;;;;;;25.13;10.00;;;;;;;3.84;100.00;100997.38;6044413;23;20188;-74
2024/02/13 06:34:11;;;;;;;21.53;9.77;;;;;;;3.80;100.00;100996.34;6043809;23;20306;-74
2024/02/13 06:36:37;;;;;;;21.03;9.73;;;;;;;3.76;100.00;101006.56;6043827;23;20808;-74
2024/02/13 06:39:05;;;;;;;19.97;9.47;;;;;;;3.71;100.00;101003.97;6044446;23;20175;-74
2024/02/13 06:41:31;;;;;;;21.93;9.83;;;;;;;3.65;100.00;101002.44;6044541;23;20251;-74
2024/02/13 06:43:58;;;;;;;21.13;9.23;;;;;;;3.61;100.00;101011.88;6044407;23;20171;-74
2024/02/13 06:46:24;;;;;;;25.93;10.33;;;;;;;3.58;100.00;101011.63;6044648;23;20256;-73
2024/02/13 06:48:53;;;;;;;22.07;9.33;;;;;;;3.57;100.00;101029.13;6044104;23;20190;-74
2024/02/13 06:51:19;;;;;;;26.00;10.00;;;;;;;3.58;100.00;101029.91;6044903;23;20194;-74
2024/02/13 06:53:46;;;;;;;29.53;10.13;;;;;;;3.62;100.00;101036.91;6044389;23;20250;-74
2024/02/13 06:56:16;;;;;;;25.67;10.73;;;;;;;3.69;100.00;101047.84;6044082;23;20246;-74
2024/02/13 06:58:42;;;;;;;25.10;11.07;;;;;;;3.77;100.00;101044.69;6044383;23;20261;-74
2024/02/13 07:01:09;;;;;;;30.33;11.23;;;;;;;3.82;100.00;101049.88;6043458;23;20608;-75
2024/02/13 07:03:35;;;;;;;28.60;10.43;;;;;;;3.89;100.00;101052.97;6038296;23;20168;-74
2024/02/13 07:06:04;;;;;;;31.40;11.07;;;;;;;3.96;100.00;101061.31;6043226;23;20257;-75
2024/02/13 07:08:30;;;;;;;29.03;11.33;;;;;;;4.03;100.00;101059.19;6042974;23;20489;-74
2024/02/13 07:10:57;;;;;;;28.93;10.83;;;;;;;4.07;100.00;101060.22;6009455;23;20570;-73
2024/02/13 07:13:25;;;;;;;31.20;10.63;;;;;;;4.15;100.00;101072.69;6043220;23;20189;-74
2024/02/13 07:15:51;;;;;;;25.20;11.63;;;;;;;4.20;100.00;101079.72;6008846;23;20180;-74
2024/02/13 07:18:18;;;;;;;28.13;11.50;;;;;;;4.24;100.00;101076.28;6043870;23;20239;-75
2024/02/13 07:20:44;;;;;;;25.73;10.90;;;;;;;4.30;100.00;101079.66;6044018;23;20171;-74
2024/02/13 07:23:11;;;;;;;26.50;10.63;;;;;;;4.37;100.00;101086.16;6042648;23;20207;-74
2024/02/13 07:25:39;;;;;;;30.33;11.60;;;;;;;4.41;100.00;101092.38;6044099;23;20170;-74
2024/02/13 07:28:05;;;;;;;30.90;11.37;;;;;;;4.46;100.00;101084.50;6043529;23;20665;-74
2024/02/13 07:30:33;;;;;;;27.57;10.47;;;;;;;4.49;100.00;101094.44;6043541;23;20170;-75
2024/02/13 07:33:02;;;;;;;34.57;11.57;;;;;;;4.49;100.00;101091.03;6044302;23;20187;-75
2024/02/13 07:35:28;;;;;;;30.37;11.03;;;;;;;4.50;100.00;101092.63;6009482;23;20191;-74
2024/02/13 07:37:55;;;;;;;25.17;10.40;;;;;;;4.48;100.00;101098.09;6043460;23;20192;-75
2024/02/13 07:40:21;;;;;;;26.60;11.50;;;;;;;4.48;100.00;101103.34;6043671;23;20173;-74
2024/02/13 07:42:47;;;;;;;27.90;10.50;;;;;;;4.52;100.00;101096.50;6043711;23;20187;-74
2024/02/13 07:45:14;;;;;;;29.70;10.80;;;;;;;4.55;100.00;101103.00;6044254;23;20250;-75
2024/02/13 07:47:41;;;;;;;28.73;12.00;;;;;;;4.59;100.00;101099.59;6043439;23;20198;-74
2024/02/13 07:50:09;;;;;;;34.10;11.97;;;;;;;4.67;100.00;101109.44;6009605;23;20296;-74
2024/02/13 07:52:36;;;;;;;27.13;11.73;;;;;;;4.73;100.00;101108.38;6043201;23;20691;-74
2024/02/13 07:55:04;;;;;;;29.70;11.37;;;;;;;4.80;100.00;101106.22;6043437;23;20176;-74
2024/02/13 07:57:32;;;;;;;37.13;12.43;;;;;;;4.86;100.00;101112.97;6043394;23;20186;-74
2024/02/13 07:59:59;;;;;;;32.13;12.03;;;;;;;4.92;100.00;101111.88;6043766;23;20955;-74
2024/02/13 08:02:25;;;;;;;29.77;11.60;;;;;;;4.97;100.00;101119.69;6034556;23;20838;-74
2024/02/13 08:04:53;;;;;;;28.43;12.00;;;;;;;5.02;100.00;101124.88;6008192;23;20172;-74
2024/02/13 08:07:19;;;;;;;28.10;11.37;;;;;;;5.07;100.00;101124.06;6041962;23;20191;-74
2024/02/13 08:09:46;;;;;;;32.07;12.90;;;;;;;5.12;100.00;101122.16;6043090;23;20250;-74
2024/02/13 08:12:12;;;;;;;35.63;14.07;;;;;;;5.17;100.00;101132.59;6042783;23;20824;-74
2024/02/13 08:14:39;;;;;;;35.97;13.20;;;;;;;5.23;100.00;101131.47;6043428;23;20163;-74
2024/02/13 08:17:08;;;;;;;32.13;13.47;;;;;;;5.29;100.00;101129.63;6042151;23;20187;-74
2024/02/13 08:19:34;;;;;;;28.00;11.83;;;;;;;5.32;100.00;101131.66;6043134;23;20204;-74
2024/02/13 08:22:02;;;;;;;30.90;12.80;;;;;;;5.39;100.00;101124.28;6031472;23;20502;-74
2024/02/13 08:24:29;;;;;;;29.87;13.67;;;;;;;5.44;100.00;101129.47;6042357;23;20179;-74
2024/02/13 08:30:42;;;;;;;29.40;12.47;;;;;;;5.58;100.00;101128.50;6042876;23;20597;-74
2024/02/13 08:33:09;;;;;;;29.77;13.13;;;;;;;5.64;100.00;101130.03;6042857;23;20183;-75
2024/02/13 08:35:35;;;;;;;25.70;12.10;;;;;;;5.69;100.00;101134.44;6042746;23;20171;-75
2024/02/13 08:38:03;;;;;;;35.23;12.77;;;;;;;5.76;100.00;101146.13;6007343;23;20195;-74
2024/02/13 08:40:29;;;;;;;24.83;11.60;;;;;;;5.82;100.00;101141.63;6042531;23;20167;-75
2024/02/13 08:42:56;;;;;;;29.13;11.67;;;;;;;5.87;100.00;101138.97;6042225;23;20170;-75
2024/02/13 08:45:21;;;;;;;27.23;11.63;;;;;;;5.94;100.00;101145.44;6042541;23;20171;-74
2024/02/13 08:47:48;;;;;;;23.87;10.83;;;;;;;6.00;100.00;101146.91;6042207;23;20191;-74
2024/02/13 08:50:14;;;;;;;21.00;11.07;;;;;;;6.04;100.00;101142.69;6008601;23;20175;-75
2024/02/13 08:52:41;;;;;;;22.80;9.30;;;;;;;6.10;100.00;101149.41;6042295;23;20187;-74
2024/02/13 08:55:10;;;;;;;18.80;10.20;;;;;;;6.16;100.00;101139.66;6008429;23;20180;-74
2024/02/13 08:57:37;;;;;;;17.03;8.87;;;;;;;6.22;100.00;101141.16;6041469;23;20197;-74
2024/02/13 09:03:50;;;;;;;15.30;8.03;;;;;;;6.39;100.00;101142.22;6042244;23;20200;-74
2024/02/13 09:06:17;;;;;;;16.80;7.23;;;;;;;6.47;100.00;101149.44;6041465;23;20171;-74
2024/02/13 09:09:25;;;;;;;11.63;7.33;;;;;;;6.57;100.00;101148.53;6041498;23;20203;-74
2024/02/13 09:11:52;;;;;;;11.07;6.37;;;;;;;6.64;100.00;101156.81;6007587;23;20178;-75
2024/02/13 09:14:19;;;;;;;9.50;6.77;;;;;;;6.67;100.00;101157.03;6041920;23;20266;-74
2024/02/13 09:16:45;;;;;;;8.83;5.77;;;;;;;6.73;100.00;101163.75;6007885;23;20254;-74
2024/02/13 09:19:12;;;;;;;11.37;6.07;;;;;;;6.76;100.00;101157.94;6041954;23;20171;-74
2024/02/13 09:21:38;;;;;;;11.50;7.80;;;;;;;6.80;100.00;101164.19;6042975;23;20174;-74
2024/02/13 09:24:38;;;;;;;10.23;6.93;;;;;;;6.87;100.00;101169.84;6042698;23;20223;-75
2024/02/13 09:27:07;;;;;;;9.80;6.17;;;;;;;6.90;100.00;101177.16;6042375;23;20194;-75
2024/02/13 09:29:33;;;;;;;8.17;4.80;;;;;;;6.94;100.00;101175.50;6006494;23;20171;-74
2024/02/13 09:32:00;;;;;;;8.67;5.90;;;;;;;6.99;100.00;101174.66;6007617;23;20526;-74
2024/02/13 09:34:27;;;;;;;12.10;8.40;;;;;;;7.00;100.00;101176.97;6007454;23;20522;-74
2024/02/13 09:36:53;;;;;;;7.40;4.90;;;;;;;7.04;100.00;101177.97;6042378;23;20178;-74
2024/02/13 09:39:20;;;;;;;6.17;4.60;;;;;;;7.06;100.00;101183.72;6041902;23;20510;-74
2024/02/13 09:41:46;;;;;;;6.60;4.00;;;;;;;7.07;100.00;101180.03;6042213;23;20497;-74
2024/02/13 09:44:15;;;;;;;5.40;4.13;;;;;;;7.05;100.00;101182.13;6033114;23;20220;-74
2024/02/13 09:46:42;;;;;;;4.23;3.40;;;;;;;7.06;100.00;101182.94;6058356;23;20188;-74
2024/02/13 09:53:05;;;;;;;4.97;3.13;;;;;;;7.11;100.00;101196.78;6068957;23;20266;-74
2024/02/13 10:03:08;;;;;;;4.53;3.63;;;;;;;7.20;100.00;101195.03;6071314;23;20147;-74
2024/02/13 10:05:34;;;;;;;4.20;3.57;;;;;;;7.19;100.00;101201.34;6070474;23;20250;-74
2024/02/13 10:08:01;;;;;;;6.23;3.73;;;;;;;7.19;100.00;101206.59;6057689;23;20210;-74
2024/02/13 10:10:30;;;;;;;6.50;3.17;;;;;;;7.21;100.00;101198.44;6069891;23;20170;-74
2024/02/13 10:13:00;;;;;;;3.97;3.50;;;;;;;7.20;100.00;101196.91;6070364;23;20649;-74
2024/02/13 10:15:38;;;;;;;4.97;3.20;;;;;;;7.23;100.00;101204.19;6069889;23;20167;-74
2024/02/13 10:18:11;;;;;;;4.20;2.90;;;;;;;7.25;100.00;101209.94;6059810;23;20202;-74
2024/02/13 10:20:38;;;;;;;5.00;3.17;;;;;;;7.25;100.00;101210.72;6060951;23;20199;-74
2024/02/13 10:23:04;;;;;;;4.27;2.73;;;;;;;7.28;100.00;101204.09;6072636;23;20246;-75
2024/02/13 10:29:18;;;;;;;5.47;2.97;;;;;;;7.29;100.00;101201.19;6073013;23;20208;-74
2024/02/13 10:31:45;;;;;;;8.63;3.37;;;;;;;7.31;100.00;101206.94;6072417;23;20168;-74
2024/02/13 10:34:13;;;;;;;3.70;2.73;;;;;;;7.34;100.00;101213.44;6072499;23;20600;-74
2024/02/13 10:36:44;;;;;;;3.60;2.13;;;;;;;7.38;100.00;101220.50;6073017;23;20178;-74
2024/02/13 10:39:14;;;;;;;2.50;1.97;;;;;;;7.44;100.00;101219.34;6072479;23;20182;-74
2024/02/13 10:41:43;;;;;;;4.17;2.07;;;;;;;7.52;100.00;101223.16;6060766;23;20495;-74
2024/02/13 10:44:11;;;;;;;3.47;1.90;;;;;;;7.56;100.00;101222.28;6072744;23;20231;-74
2024/02/13 10:46:39;;;;;;;3.90;2.50;;;;;;;7.65;100.00;101219.75;6080764;23;20516;-74
2024/02/13 10:49:22;;;;;;;5.03;3.03;;;;;;;7.71;100.00;101215.97;6101566;23;20167;-75
2024/02/13 10:51:50;;;;;;;4.00;2.03;;;;;;;7.80;100.00;101224.72;6065180;23;20174;-74
2024/02/13 10:54:18;;;;;;;4.03;2.53;;;;;;;7.90;100.00;101221.91;6100557;23;20191;-74
2024/02/13 11:04:21;;;;;;;1.83;1.17;;;;;;;7.96;100.00;101223.38;6100896;23;20534;-74
2024/02/13 11:06:47;;;;;;;1.70;1.20;;;;;;;7.99;100.00;101217.53;6100103;23;20197;-75
2024/02/13 11:09:14;;;;;;;2.20;1.00;;;;;;;8.10;100.00;101211.81;6065488;23;20175;-74
2024/02/13 11:11:43;;;;;;;2.17;1.20;;;;;;;8.16;100.00;101204.56;6100568;23;20563;-74
2024/02/13 11:14:17;;;;;;;2.20;1.27;;;;;;;8.23;100.00;101212.91;6101211;23;20192;-75
2024/02/13 11:16:51;;;;;;;2.70;1.30;;;;;;;8.26;100.00;101204.41;6065422;23;20890;-74
2024/02/13 11:19:21;;;;;;;2.33;1.40;;;;;;;8.26;100.00;101207.81;6099779;23;20172;-74
2024/02/13 11:21:51;;;;;;;2.20;1.30;;;;;;;8.26;100.00;101212.28;6100504;23;20176;-74
2024/02/13 11:24:21;;;;;;;1.77;1.60;;;;;;;8.27;100.00;101217.28;6099869;23;20198;-74
2024/02/13 11:26:48;;;;;;;2.33;1.20;;;;;;;8.27;100.00;101219.91;6100353;23;20221;-74
2024/02/13 11:29:16;;;;;;;2.67;1.13;;;;;;;8.30;100.00;101221.16;6099786;23;20205;-74
2024/02/13 11:39:19;;;;;;;2.37;1.00;;;;;;;8.34;100.00;101233.44;6100048;23;20220;-74
2024/02/13 11:41:45;;;;;;;1.97;1.00;;;;;;;8.33;100.00;101239.00;6099290;23;20618;-74
2024/02/13 11:44:12;;;;;;;1.67;1.20;;;;;;;8.31;100.00;101241.94;6100331;23;20164;-74
2024/02/13 11:46:39;;;;;;;3.10;1.23;;;;;;;8.30;100.00;101239.59;6100213;23;20181;-74
2024/02/13 11:49:07;;;;;;;3.07;1.10;;;;;;;8.32;100.00;101243.47;6099549;23;20165;-74
2024/02/13 11:51:34;;;;;;;1.90;1.00;;;;;;;8.31;100.00;101241.94;6100519;23;20177;-74
2024/02/13 11:54:01;;;;;;;1.20;1.10;;;;;;;8.30;100.00;101248.25;6099740;23;20211;-74